sensor_id;sensor_type;location;lat;lon;timestamp;pressure;altitude;pressure_sealevel;temperature;humidity
78825;BME280;68176;45.554;10.220;2024-01-30T00:02:17;101914.72;;;8.22;63.45
78825;BME280;68176;45.554;10.220;2024-01-30T00:04:46;101915.66;;;8.20;63.58
78825;BME280;68176;45.554;10.220;2024-01-30T00:07:16;101906.19;;;8.17;63.60
78825;BME280;68176;45.554;10.220;2024-01-30T00:09:47;101905.28;;;8.18;63.47
78825;BME280;68176;45.554;10.220;2024-01-30T00:12:17;101908.81;;;8.17;63.43
78825;BME280;68176;45.554;10.220;2024-01-30T00:14:46;101918.34;;;8.18;63.40
78825;BME280;68176;45.554;10.220;2024-01-30T00:17:16;101914.03;;;8.17;63.25
78825;BME280;68176;45.554;10.220;2024-01-30T00:19:47;101906.47;;;8.11;63.50
78825;BME280;68176;45.554;10.220;2024-01-30T00:22:17;101902.81;;;8.15;63.58
78825;BME280;68176;45.554;10.220;2024-01-30T00:24:47;101908.91;;;8.16;63.65
78825;BME280;68176;45.554;10.220;2024-01-30T00:27:17;101912.34;;;8.16;63.26
78825;BME280;68176;45.554;10.220;2024-01-30T00:29:47;101902.88;;;8.14;63.15
78825;BME280;68176;45.554;10.220;2024-01-30T00:32:17;101908.94;;;8.14;63.46
78825;BME280;68176;45.554;10.220;2024-01-30T00:34:47;101896.00;;;8.11;63.47
78825;BME280;68176;45.554;10.220;2024-01-30T00:37:17;101899.34;;;8.15;63.56
78825;BME280;68176;45.554;10.220;2024-01-30T00:39:47;101908.03;;;8.15;63.45
78825;BME280;68176;45.554;10.220;2024-01-30T00:42:17;101899.41;;;8.13;62.94
78825;BME280;68176;45.554;10.220;2024-01-30T00:44:47;101897.78;;;8.11;63.31
78825;BME280;68176;45.554;10.220;2024-01-30T00:47:17;101905.56;;;8.12;63.17
78825;BME280;68176;45.554;10.220;2024-01-30T00:49:47;101902.94;;;8.12;63.49
78825;BME280;68176;45.554;10.220;2024-01-30T00:52:17;101910.84;;;8.11;63.47
78825;BME280;68176;45.554;10.220;2024-01-30T00:54:47;101906.59;;;8.08;63.36
78825;BME280;68176;45.554;10.220;2024-01-30T00:57:17;101903.06;;;8.09;63.31
78825;BME280;68176;45.554;10.220;2024-01-30T00:59:47;101898.84;;;8.07;63.41
78825;BME280;68176;45.554;10.220;2024-01-30T01:02:17;101897.03;;;8.07;63.20
78825;BME280;68176;45.554;10.220;2024-01-30T01:04:47;101892.75;;;8.06;63.19
78825;BME280;68176;45.554;10.220;2024-01-30T01:07:17;101904.88;;;8.07;63.33
78825;BME280;68176;45.554;10.220;2024-01-30T01:09:47;101906.72;;;8.05;63.20
78825;BME280;68176;45.554;10.220;2024-01-30T01:12:17;101904.25;;;8.02;63.39
78825;BME280;68176;45.554;10.220;2024-01-30T01:14:47;101905.03;;;8.04;63.24
78825;BME280;68176;45.554;10.220;2024-01-30T01:17:17;101901.63;;;8.02;63.36
78825;BME280;68176;45.554;10.220;2024-01-30T01:19:47;101892.16;;;7.99;63.09
78825;BME280;68176;45.554;10.220;2024-01-30T01:22:17;101893.03;;;8.00;63.17
78825;BME280;68176;45.554;10.220;2024-01-30T01:24:47;101900.88;;;8.00;63.20
78825;BME280;68176;45.554;10.220;2024-01-30T01:27:17;101899.94;;;8.01;63.16
78825;BME280;68176;45.554;10.220;2024-01-30T01:29:47;101894.69;;;8.01;63.24
78825;BME280;68176;45.554;10.220;2024-01-30T01:32:17;101901.91;;;7.96;63.16
78825;BME280;68176;45.554;10.220;2024-01-30T01:34:47;101893.94;;;7.99;63.26
78825;BME280;68176;45.554;10.220;2024-01-30T01:37:17;101898.38;;;7.97;63.20
78825;BME280;68176;45.554;10.220;2024-01-30T01:39:47;101900.06;;;7.98;63.22
78825;BME280;68176;45.554;10.220;2024-01-30T01:42:17;101893.97;;;7.97;63.12
78825;BME280;68176;45.554;10.220;2024-01-30T01:44:47;101893.28;;;7.94;63.27
78825;BME280;68176;45.554;10.220;2024-01-30T01:47:17;101888.88;;;7.94;63.13
78825;BME280;68176;45.554;10.220;2024-01-30T01:49:47;101895.81;;;7.95;63.26
78825;BME280;68176;45.554;10.220;2024-01-30T01:52:17;101894.09;;;7.94;63.42
78825;BME280;68176;45.554;10.220;2024-01-30T01:54:47;101898.50;;;7.94;63.31
78825;BME280;68176;45.554;10.220;2024-01-30T01:57:17;101891.72;;;7.90;63.30
78825;BME280;68176;45.554;10.220;2024-01-30T01:59:47;101902.03;;;7.93;63.40
78825;BME280;68176;45.554;10.220;2024-01-30T02:02:18;101891.72;;;7.90;63.05
78825;BME280;68176;45.554;10.220;2024-01-30T02:04:47;101877.84;;;7.88;63.20
78825;BME280;68176;45.554;10.220;2024-01-30T02:07:17;101886.47;;;7.90;63.10
78825;BME280;68176;45.554;10.220;2024-01-30T02:09:47;101889.03;;;7.91;63.30
78825;BME280;68176;45.554;10.220;2024-01-30T02:12:17;101885.63;;;7.89;63.25
78825;BME280;68176;45.554;10.220;2024-01-30T02:14:50;101877.06;;;7.86;63.32
78825;BME280;68176;45.554;10.220;2024-01-30T02:17:17;101882.97;;;7.91;63.00
78825;BME280;68176;45.554;10.220;2024-01-30T02:19:47;101879.56;;;7.89;63.03
78825;BME280;68176;45.554;10.220;2024-01-30T02:22:17;101878.91;;;7.84;63.00
78825;BME280;68176;45.554;10.220;2024-01-30T02:24:47;101877.97;;;7.85;63.13
78825;BME280;68176;45.554;10.220;2024-01-30T02:27:17;101888.38;;;7.86;63.16
78825;BME280;68176;45.554;10.220;2024-01-30T02:29:47;101881.53;;;7.84;63.39
78825;BME280;68176;45.554;10.220;2024-01-30T02:32:17;101881.53;;;7.84;63.20
78825;BME280;68176;45.554;10.220;2024-01-30T02:34:47;101885.91;;;7.83;63.12
78825;BME280;68176;45.554;10.220;2024-01-30T02:37:17;101885.91;;;7.83;63.56
78825;BME280;68176;45.554;10.220;2024-01-30T02:39:47;101880.66;;;7.83;63.17
78825;BME280;68176;45.554;10.220;2024-01-30T02:42:17;101874.81;;;7.78;63.13
78825;BME280;68176;45.554;10.220;2024-01-30T02:44:47;101877.34;;;7.80;63.39
78825;BME280;68176;45.554;10.220;2024-01-30T02:47:17;101875.72;;;7.77;63.39
78825;BME280;68176;45.554;10.220;2024-01-30T02:49:47;101873.88;;;7.79;63.23
78825;BME280;68176;45.554;10.220;2024-01-30T02:52:17;101873.94;;;7.78;63.39
78825;BME280;68176;45.554;10.220;2024-01-30T02:54:47;101873.16;;;7.76;63.11
78825;BME280;68176;45.554;10.220;2024-01-30T02:57:17;101883.47;;;7.79;63.22
78825;BME280;68176;45.554;10.220;2024-01-30T02:59:48;101867.09;;;7.75;63.10
78825;BME280;68176;45.554;10.220;2024-01-30T03:02:17;101867.91;;;7.76;63.41
78825;BME280;68176;45.554;10.220;2024-01-30T03:04:47;101870.47;;;7.77;63.08
78825;BME280;68176;45.554;10.220;2024-01-30T03:07:17;101863.63;;;7.75;62.94
78825;BME280;68176;45.554;10.220;2024-01-30T03:09:47;101871.47;;;7.75;63.38
78825;BME280;68176;45.554;10.220;2024-01-30T03:12:17;101867.16;;;7.74;63.10
78825;BME280;68176;45.554;10.220;2024-01-30T03:14:48;101866.38;;;7.72;63.10
78825;BME280;68176;45.554;10.220;2024-01-30T03:17:18;101870.66;;;7.73;63.23
78825;BME280;68176;45.554;10.220;2024-01-30T03:19:48;101871.59;;;7.72;63.42
78825;BME280;68176;45.554;10.220;2024-01-30T03:22:18;101862.97;;;7.70;63.05
78825;BME280;68176;45.554;10.220;2024-01-30T03:24:47;101868.06;;;7.73;63.14
78825;BME280;68176;45.554;10.220;2024-01-30T03:27:17;101865.53;;;7.71;62.99
78825;BME280;68176;45.554;10.220;2024-01-30T03:29:47;101864.66;;;7.71;63.39
78825;BME280;68176;45.554;10.220;2024-01-30T03:32:18;101857.88;;;7.67;63.24
78825;BME280;68176;45.554;10.220;2024-01-30T03:34:47;101863.09;;;7.67;63.19
78825;BME280;68176;45.554;10.220;2024-01-30T03:37:18;101856.19;;;7.66;63.43
78825;BME280;68176;45.554;10.220;2024-01-30T03:39:48;101849.25;;;7.65;63.41
78825;BME280;68176;45.554;10.220;2024-01-30T03:42:18;101857.00;;;7.66;63.02
78825;BME280;68176;45.554;10.220;2024-01-30T03:44:48;101858.72;;;7.67;62.96
78825;BME280;68176;45.554;10.220;2024-01-30T03:47:18;101858.81;;;7.66;63.28
78825;BME280;68176;45.554;10.220;2024-01-30T03:49:48;101862.22;;;7.66;63.12
78825;BME280;68176;45.554;10.220;2024-01-30T03:52:17;101857.88;;;7.67;62.99
78825;BME280;68176;45.554;10.220;2024-01-30T03:54:48;101860.56;;;7.65;63.27
78825;BME280;68176;45.554;10.220;2024-01-30T03:57:18;101854.63;;;7.62;63.69
78825;BME280;68176;45.554;10.220;2024-01-30T03:59:47;101859.69;;;7.65;63.28
78825;BME280;68176;45.554;10.220;2024-01-30T04:02:18;101859.84;;;7.62;63.23
78825;BME280;68176;45.554;10.220;2024-01-30T04:04:48;101868.44;;;7.64;62.90
78825;BME280;68176;45.554;10.220;2024-01-30T04:07:18;101866.75;;;7.63;63.25
78825;BME280;68176;45.554;10.220;2024-01-30T04:09:48;101863.34;;;7.61;63.29
78825;BME280;68176;45.554;10.220;2024-01-30T04:12:18;101866.84;;;7.60;63.27
78825;BME280;68176;45.554;10.220;2024-01-30T04:14:48;101867.72;;;7.60;63.07
78825;BME280;68176;45.554;10.220;2024-01-30T04:17:18;101866.84;;;7.60;63.16
78825;BME280;68176;45.554;10.220;2024-01-30T04:19:48;101865.19;;;7.59;63.07
78825;BME280;68176;45.554;10.220;2024-01-30T04:22:18;101863.59;;;7.55;63.50
78825;BME280;68176;45.554;10.220;2024-01-30T04:24:48;101853.16;;;7.55;63.05
78825;BME280;68176;45.554;10.220;2024-01-30T04:27:18;101861.75;;;7.57;63.30
78825;BME280;68176;45.554;10.220;2024-01-30T04:29:48;101861.75;;;7.57;63.55
78825;BME280;68176;45.554;10.220;2024-01-30T04:32:18;101857.47;;;7.56;63.32
78825;BME280;68176;45.554;10.220;2024-01-30T04:34:48;101856.66;;;7.53;63.10
78825;BME280;68176;45.554;10.220;2024-01-30T04:37:18;101856.53;;;7.57;63.13
78825;BME280;68176;45.554;10.220;2024-01-30T04:39:48;101855.84;;;7.53;63.53
78825;BME280;68176;45.554;10.220;2024-01-30T04:42:18;101851.59;;;7.50;62.96
78825;BME280;68176;45.554;10.220;2024-01-30T04:44:49;101858.38;;;7.55;62.98
78825;BME280;68176;45.554;10.220;2024-01-30T04:47:18;101852.38;;;7.53;63.23
78825;BME280;68176;45.554;10.220;2024-01-30T04:49:48;101854.13;;;7.52;63.35
78825;BME280;68176;45.554;10.220;2024-01-30T04:52:18;101862.03;;;7.50;63.21
78825;BME280;68176;45.554;10.220;2024-01-30T04:54:48;101856.75;;;7.52;63.30
78825;BME280;68176;45.554;10.220;2024-01-30T04:57:18;101855.13;;;7.49;63.30
78825;BME280;68176;45.554;10.220;2024-01-30T04:59:48;101850.94;;;7.45;63.18
78825;BME280;68176;45.554;10.220;2024-01-30T05:02:18;101862.16;;;7.47;63.39
78825;BME280;68176;45.554;10.220;2024-01-30T05:04:48;101857.06;;;7.44;63.41
78825;BME280;68176;45.554;10.220;2024-01-30T05:07:18;101854.53;;;7.43;63.07
78825;BME280;68176;45.554;10.220;2024-01-30T05:09:55;101855.38;;;7.43;63.14
78825;BME280;68176;45.554;10.220;2024-01-30T05:12:21;101856.28;;;7.42;63.67
78825;BME280;68176;45.554;10.220;2024-01-30T05:14:48;101851.97;;;7.41;63.27
78825;BME280;68176;45.554;10.220;2024-01-30T05:17:18;101850.28;;;7.40;63.41
78825;BME280;68176;45.554;10.220;2024-01-30T05:19:48;101862.41;;;7.41;63.53
78825;BME280;68176;45.554;10.220;2024-01-30T05:22:18;101851.09;;;7.41;62.92
78825;BME280;68176;45.554;10.220;2024-01-30T05:24:48;101857.91;;;7.45;63.31
78825;BME280;68176;45.554;10.220;2024-01-30T05:27:18;101859.88;;;7.40;63.21
78825;BME280;68176;45.554;10.220;2024-01-30T05:29:48;101859.88;;;7.40;63.22
78825;BME280;68176;45.554;10.220;2024-01-30T05:32:18;101862.59;;;7.37;63.22
78825;BME280;68176;45.554;10.220;2024-01-30T05:34:48;101859.16;;;7.36;63.23
78825;BME280;68176;45.554;10.220;2024-01-30T05:37:18;101857.31;;;7.38;63.41
78825;BME280;68176;45.554;10.220;2024-01-30T05:39:48;101860.00;;;7.37;63.20
78825;BME280;68176;45.554;10.220;2024-01-30T05:42:18;101860.94;;;7.34;63.35
78825;BME280;68176;45.554;10.220;2024-01-30T05:44:48;101861.88;;;7.33;63.17
78825;BME280;68176;45.554;10.220;2024-01-30T05:47:18;101863.47;;;7.37;63.07
78825;BME280;68176;45.554;10.220;2024-01-30T05:49:48;101864.38;;;7.36;63.09
78825;BME280;68176;45.554;10.220;2024-01-30T05:52:18;101864.50;;;7.33;63.22
78825;BME280;68176;45.554;10.220;2024-01-30T05:54:48;101866.16;;;7.34;63.23
78825;BME280;68176;45.554;10.220;2024-01-30T05:57:18;101863.63;;;7.33;63.07
78825;BME280;68176;45.554;10.220;2024-01-30T05:59:48;101870.59;;;7.32;63.33
78825;BME280;68176;45.554;10.220;2024-01-30T06:02:18;101867.16;;;7.32;63.39
78825;BME280;68176;45.554;10.220;2024-01-30T06:04:48;101873.22;;;7.32;63.19
78825;BME280;68176;45.554;10.220;2024-01-30T06:07:18;101874.94;;;7.33;63.37
78825;BME280;68176;45.554;10.220;2024-01-30T06:09:48;101874.94;;;7.33;63.06
78825;BME280;68176;45.554;10.220;2024-01-30T06:12:18;101878.44;;;7.32;63.34
78825;BME280;68176;45.554;10.220;2024-01-30T06:14:48;101874.13;;;7.31;63.23
78825;BME280;68176;45.554;10.220;2024-01-30T06:17:19;101872.44;;;7.30;63.26
78825;BME280;68176;45.554;10.220;2024-01-30T06:19:49;101877.66;;;7.30;62.98
78825;BME280;68176;45.554;10.220;2024-01-30T06:22:18;101875.19;;;7.27;63.34
78825;BME280;68176;45.554;10.220;2024-01-30T06:24:49;101871.63;;;7.28;62.95
78825;BME280;68176;45.554;10.220;2024-01-30T06:27:18;101876.06;;;7.26;63.11
78825;BME280;68176;45.554;10.220;2024-01-30T06:29:48;101882.16;;;7.27;63.35
78825;BME280;68176;45.554;10.220;2024-01-30T06:32:18;101877.84;;;7.26;63.24
78825;BME280;68176;45.554;10.220;2024-01-30T06:34:48;101877.78;;;7.27;63.15
78825;BME280;68176;45.554;10.220;2024-01-30T06:37:19;101873.72;;;7.20;63.12
78825;BME280;68176;45.554;10.220;2024-01-30T06:39:48;101877.09;;;7.22;63.43
78825;BME280;68176;45.554;10.220;2024-01-30T06:42:19;101883.16;;;7.23;63.12
78825;BME280;68176;45.554;10.220;2024-01-30T06:44:48;101881.41;;;7.23;63.37
78825;BME280;68176;45.554;10.220;2024-01-30T06:47:18;101892.75;;;7.22;63.31
78825;BME280;68176;45.554;10.220;2024-01-30T06:49:49;101885.06;;;7.19;63.29
78825;BME280;68176;45.554;10.220;2024-01-30T06:52:19;101882.28;;;7.24;63.42
78825;BME280;68176;45.554;10.220;2024-01-30T06:54:48;101884.88;;;7.24;63.28
78825;BME280;68176;45.554;10.220;2024-01-30T06:57:18;101884.16;;;7.20;63.11
78825;BME280;68176;45.554;10.220;2024-01-30T06:59:49;101878.84;;;7.22;63.30
78825;BME280;68176;45.554;10.220;2024-01-30T07:02:19;101885.00;;;7.21;63.17
78825;BME280;68176;45.554;10.220;2024-01-30T07:04:48;101882.44;;;7.19;63.38
78825;BME280;68176;45.554;10.220;2024-01-30T07:07:19;101880.75;;;7.18;63.02
78825;BME280;68176;45.554;10.220;2024-01-30T07:09:49;101877.34;;;7.16;63.27
78825;BME280;68176;45.554;10.220;2024-01-30T07:12:19;101884.28;;;7.17;63.30
78825;BME280;68176;45.554;10.220;2024-01-30T07:14:49;101885.97;;;7.18;63.17
78825;BME280;68176;45.554;10.220;2024-01-30T07:17:19;101880.03;;;7.15;63.25
78825;BME280;68176;45.554;10.220;2024-01-30T07:19:49;101873.09;;;7.14;63.19
78825;BME280;68176;45.554;10.220;2024-01-30T07:22:19;101884.28;;;7.17;63.44
78825;BME280;68176;45.554;10.220;2024-01-30T07:24:49;101880.88;;;7.15;63.33
78825;BME280;68176;45.554;10.220;2024-01-30T07:27:19;101887.91;;;7.13;63.34
78825;BME280;68176;45.554;10.220;2024-01-30T07:29:49;101883.50;;;7.15;63.25
78825;BME280;68176;45.554;10.220;2024-01-30T07:32:19;101888.75;;;7.14;63.35
78825;BME280;68176;45.554;10.220;2024-01-30T07:34:49;101894.84;;;7.14;63.05
78825;BME280;68176;45.554;10.220;2024-01-30T07:37:19;101891.31;;;7.15;63.36
78825;BME280;68176;45.554;10.220;2024-01-30T07:39:49;101883.81;;;7.06;63.35
78825;BME280;68176;45.554;10.220;2024-01-30T07:42:19;101904.38;;;7.15;63.21
78825;BME280;68176;45.554;10.220;2024-01-30T07:44:49;101908.78;;;7.13;63.22
78825;BME280;68176;45.554;10.220;2024-01-30T07:47:19;101906.03;;;7.16;62.98
78825;BME280;68176;45.554;10.220;2024-01-30T07:49:49;101900.81;;;7.16;63.15
78825;BME280;68176;45.554;10.220;2024-01-30T07:52:19;101912.06;;;7.18;62.84
78825;BME280;68176;45.554;10.220;2024-01-30T07:54:49;101910.41;;;7.16;63.06
78825;BME280;68176;45.554;10.220;2024-01-30T07:57:19;101922.63;;;7.15;62.81
78825;BME280;68176;45.554;10.220;2024-01-30T07:59:49;101915.59;;;7.17;63.26
78825;BME280;68176;45.554;10.220;2024-01-30T08:02:19;101917.41;;;7.15;63.18
78825;BME280;68176;45.554;10.220;2024-01-30T08:04:49;101895.19;;;7.05;63.02
78825;BME280;68176;45.554;10.220;2024-01-30T08:07:19;101912.25;;;7.14;63.08
78825;BME280;68176;45.554;10.220;2024-01-30T08:09:49;101909.78;;;7.09;62.99
78825;BME280;68176;45.554;10.220;2024-01-30T08:12:19;101917.41;;;7.15;63.01
78825;BME280;68176;45.554;10.220;2024-01-30T08:14:49;101914.13;;;7.10;62.82
78825;BME280;68176;45.554;10.220;2024-01-30T08:17:19;101921.69;;;7.16;63.05
78825;BME280;68176;45.554;10.220;2024-01-30T08:19:49;101921.69;;;7.16;63.10
78825;BME280;68176;45.554;10.220;2024-01-30T08:22:19;101926.03;;;7.17;63.17
78825;BME280;68176;45.554;10.220;2024-01-30T08:24:49;101924.38;;;7.15;62.87
78825;BME280;68176;45.554;10.220;2024-01-30T08:27:19;101921.78;;;7.15;62.68
78825;BME280;68176;45.554;10.220;2024-01-30T08:29:49;101921.78;;;7.15;63.06
78825;BME280;68176;45.554;10.220;2024-01-30T08:32:19;101930.47;;;7.15;62.91
78825;BME280;68176;45.554;10.220;2024-01-30T08:34:49;101926.03;;;7.17;63.00
78825;BME280;68176;45.554;10.220;2024-01-30T08:37:19;101917.41;;;7.15;62.55
78825;BME280;68176;45.554;10.220;2024-01-30T08:39:49;101921.81;;;7.13;62.94
78825;BME280;68176;45.554;10.220;2024-01-30T08:42:19;101930.38;;;7.17;62.91
78825;BME280;68176;45.554;10.220;2024-01-30T08:44:49;101923.31;;;6.97;57.55
78825;BME280;68176;45.554;10.220;2024-01-30T08:47:19;101928.47;;;6.75;57.59
78825;BME280;68176;45.554;10.220;2024-01-30T08:49:49;101934.25;;;6.60;57.43
78825;BME280;68176;45.554;10.220;2024-01-30T08:52:19;101936.25;;;6.54;57.16
78825;BME280;68176;45.554;10.220;2024-01-30T08:54:49;101931.63;;;6.12;57.66
78825;BME280;68176;45.554;10.220;2024-01-30T08:57:19;101933.81;;;6.24;57.78
78825;BME280;68176;45.554;10.220;2024-01-30T08:59:49;101938.97;;;6.26;57.44
78825;BME280;68176;45.554;10.220;2024-01-30T09:02:19;101940.69;;;6.27;57.70
78825;BME280;68176;45.554;10.220;2024-01-30T09:04:49;101937.91;;;6.31;57.84
78825;BME280;68176;45.554;10.220;2024-01-30T09:07:19;101936.13;;;6.33;57.77
78825;BME280;68176;45.554;10.220;2024-01-30T09:09:49;101936.78;;;6.38;58.02
78825;BME280;68176;45.554;10.220;2024-01-30T09:12:19;101941.13;;;6.39;57.88
78825;BME280;68176;45.554;10.220;2024-01-30T09:14:49;101950.56;;;6.42;58.14
78825;BME280;68176;45.554;10.220;2024-01-30T09:17:19;101939.84;;;6.50;57.65
78825;BME280;68176;45.554;10.220;2024-01-30T09:19:49;101946.00;;;6.49;57.89
78825;BME280;68176;45.554;10.220;2024-01-30T09:22:19;101947.78;;;6.47;57.35
78825;BME280;68176;45.554;10.220;2024-01-30T09:24:49;101954.03;;;6.42;57.82
78825;BME280;68176;45.554;10.220;2024-01-30T09:27:19;101953.63;;;6.53;57.52
78825;BME280;68176;45.554;10.220;2024-01-30T09:29:49;101954.94;;;6.41;57.00
78825;BME280;68176;45.554;10.220;2024-01-30T09:32:19;101956.09;;;6.58;57.84
78825;BME280;68176;45.554;10.220;2024-01-30T09:34:49;101955.13;;;6.60;56.82
78825;BME280;68176;45.554;10.220;2024-01-30T09:37:19;101953.66;;;6.76;57.11
78825;BME280;68176;45.554;10.220;2024-01-30T09:39:49;101954.19;;;6.86;56.43
78825;BME280;68176;45.554;10.220;2024-01-30T09:42:35;101957.91;;;7.02;56.64
78825;BME280;68176;45.554;10.220;2024-01-30T09:45:02;101954.06;;;7.12;56.19
78825;BME280;68176;45.554;10.220;2024-01-30T09:47:31;101953.69;;;7.21;55.15
78825;BME280;68176;45.554;10.220;2024-01-30T09:49:57;101956.72;;;7.32;55.11
78825;BME280;68176;45.554;10.220;2024-01-30T09:52:25;101959.22;;;7.35;54.77
78825;BME280;68176;45.554;10.220;2024-01-30T09:54:55;101960.13;;;7.34;55.10
78825;BME280;68176;45.554;10.220;2024-01-30T09:57:25;101957.88;;;7.47;54.34
78825;BME280;68176;45.554;10.220;2024-01-30T09:59:55;101959.19;;;7.59;53.92
78825;BME280;68176;45.554;10.220;2024-01-30T10:02:25;101964.53;;;7.56;53.84
78825;BME280;68176;45.554;10.220;2024-01-30T10:04:55;101970.97;;;7.69;53.89
78825;BME280;68176;45.554;10.220;2024-01-30T10:07:25;101960.78;;;7.83;52.63
78825;BME280;68176;45.554;10.220;2024-01-30T10:09:55;101960.25;;;7.75;52.98
78825;BME280;68176;45.554;10.220;2024-01-30T10:12:29;101956.13;;;7.47;52.50
78825;BME280;68176;45.554;10.220;2024-01-30T10:14:56;101954.06;;;7.56;52.73
78825;BME280;68176;45.554;10.220;2024-01-30T10:17:25;101959.41;;;7.74;53.19
78825;BME280;68176;45.554;10.220;2024-01-30T10:19:55;101963.47;;;7.81;53.47
78825;BME280;68176;45.554;10.220;2024-01-30T10:22:25;101957.91;;;7.89;52.73
78825;BME280;68176;45.554;10.220;2024-01-30T10:24:55;101959.63;;;7.90;52.34
78825;BME280;68176;45.554;10.220;2024-01-30T10:27:26;101958.66;;;7.92;53.29
78825;BME280;68176;45.554;10.220;2024-01-30T10:29:55;101960.09;;;7.99;53.21
78825;BME280;68176;45.554;10.220;2024-01-30T10:32:25;101948.78;;;7.99;53.54
78825;BME280;68176;45.554;10.220;2024-01-30T10:34:55;101949.84;;;8.15;53.74
78825;BME280;68176;45.554;10.220;2024-01-30T10:37:25;101946.34;;;8.16;54.32
78825;BME280;68176;45.554;10.220;2024-01-30T10:39:56;101945.22;;;8.22;54.37
78825;BME280;68176;45.554;10.220;2024-01-30T10:42:26;101944.09;;;8.27;54.08
78825;BME280;68176;45.554;10.220;2024-01-30T10:47:40;101941.06;;;8.38;53.12
78825;BME280;68176;45.554;10.220;2024-01-30T10:50:06;101941.78;;;8.41;54.16
78825;BME280;68176;45.554;10.220;2024-01-30T10:52:33;101929.63;;;8.40;53.95
78825;BME280;68176;45.554;10.220;2024-01-30T10:55:04;101934.31;;;8.52;53.71
78825;BME280;68176;45.554;10.220;2024-01-30T10:57:33;101926.59;;;8.49;54.16
78825;BME280;68176;45.554;10.220;2024-01-30T11:00:03;101934.94;;;8.57;53.73
78825;BME280;68176;45.554;10.220;2024-01-30T11:02:32;101922.94;;;8.53;53.80
78825;BME280;68176;45.554;10.220;2024-01-30T11:05:04;101915.69;;;8.40;54.01
78825;BME280;68176;45.554;10.220;2024-01-30T11:07:31;101914.28;;;8.51;53.06
78825;BME280;68176;45.554;10.220;2024-01-30T11:10:04;101911.97;;;8.64;53.44
78825;BME280;68176;45.554;10.220;2024-01-30T11:12:32;101914.81;;;8.60;53.40
78825;BME280;68176;45.554;10.220;2024-01-30T11:15:06;101908.72;;;8.59;53.28
78825;BME280;68176;45.554;10.220;2024-01-30T11:20:10;101908.25;;;8.70;53.40
78825;BME280;68176;45.554;10.220;2024-01-30T11:22:37;101914.69;;;8.63;53.14
78825;BME280;68176;45.554;10.220;2024-01-30T11:25:04;101900.84;;;8.79;53.45
78825;BME280;68176;45.554;10.220;2024-01-30T11:27:34;101899.56;;;8.88;53.58
78825;BME280;68176;45.554;10.220;2024-01-30T11:30:04;101907.13;;;8.94;53.37
78825;BME280;68176;45.554;10.220;2024-01-30T11:32:34;101894.75;;;8.97;52.80
78825;BME280;68176;45.554;10.220;2024-01-30T11:35:04;101899.69;;;8.85;52.76
78825;BME280;68176;45.554;10.220;2024-01-30T11:37:36;101892.34;;;8.93;52.03
78825;BME280;68176;45.554;10.220;2024-01-30T11:40:04;101884.44;;;8.76;52.34
78825;BME280;68176;45.554;10.220;2024-01-30T11:42:34;101872.97;;;8.97;52.27
78825;BME280;68176;45.554;10.220;2024-01-30T11:45:04;101864.66;;;9.06;52.40
78825;BME280;68176;45.554;10.220;2024-01-30T11:47:37;101867.38;;;9.04;52.13
78825;BME280;68176;45.554;10.220;2024-01-30T11:50:04;101854.91;;;9.09;52.44
78825;BME280;68176;45.554;10.220;2024-01-30T11:52:34;101854.75;;;9.13;52.26
78825;BME280;68176;45.554;10.220;2024-01-30T11:55:04;101850.13;;;9.18;52.00
78825;BME280;68176;45.554;10.220;2024-01-30T11:57:34;101843.13;;;9.18;52.58
78825;BME280;68176;45.554;10.220;2024-01-30T12:00:06;101843.13;;;9.18;52.75
78825;BME280;68176;45.554;10.220;2024-01-30T12:02:42;101835.78;;;9.26;52.01
78825;BME280;68176;45.554;10.220;2024-01-30T12:05:08;101836.84;;;9.22;52.18
78825;BME280;68176;45.554;10.220;2024-01-30T12:07:34;101818.97;;;9.30;52.24
78825;BME280;68176;45.554;10.220;2024-01-30T12:10:04;101821.13;;;9.22;51.49
78825;BME280;68176;45.554;10.220;2024-01-30T12:12:34;101814.03;;;9.24;51.97
78825;BME280;68176;45.554;10.220;2024-01-30T12:15:04;101802.66;;;9.42;51.91
78825;BME280;68176;45.554;10.220;2024-01-30T12:17:34;101801.97;;;9.39;51.69
78825;BME280;68176;45.554;10.220;2024-01-30T12:20:12;101800.97;;;9.41;52.22
78825;BME280;68176;45.554;10.220;2024-01-30T12:22:40;101798.25;;;9.43;51.73
78825;BME280;68176;45.554;10.220;2024-01-30T12:25:17;101787.25;;;9.36;52.18
78825;BME280;68176;45.554;10.220;2024-01-30T12:27:44;101784.47;;;9.39;52.09
78825;BME280;68176;45.554;10.220;2024-01-30T12:30:12;101780.41;;;9.51;51.37
78825;BME280;68176;45.554;10.220;2024-01-30T12:32:43;101775.56;;;9.43;48.66
78825;BME280;68176;45.554;10.220;2024-01-30T12:35:12;101767.69;;;9.43;50.80
78825;BME280;68176;45.554;10.220;2024-01-30T12:37:39;101766.16;;;9.39;51.55
78825;BME280;68176;45.554;10.220;2024-01-30T12:40:07;101752.69;;;9.47;51.69
78825;BME280;68176;45.554;10.220;2024-01-30T12:42:37;101755.22;;;9.48;52.18
78825;BME280;68176;45.554;10.220;2024-01-30T12:45:07;101748.72;;;9.55;52.31
78825;BME280;68176;45.554;10.220;2024-01-30T12:47:37;101749.88;;;9.67;51.90
78825;BME280;68176;45.554;10.220;2024-01-30T12:50:06;101746.75;;;9.60;52.20
78825;BME280;68176;45.554;10.220;2024-01-30T12:52:37;101740.94;;;9.71;51.98
78825;BME280;68176;45.554;10.220;2024-01-30T12:55:07;101741.91;;;9.86;48.37
78825;BME280;68176;45.554;10.220;2024-01-30T12:57:36;101739.47;;;9.83;49.36
78825;BME280;68176;45.554;10.220;2024-01-30T13:00:07;101731.91;;;9.77;50.88
78825;BME280;68176;45.554;10.220;2024-01-30T13:02:37;101729.81;;;9.83;50.38
78825;BME280;68176;45.554;10.220;2024-01-30T13:05:07;101728.88;;;9.84;50.50
78825;BME280;68176;45.554;10.220;2024-01-30T13:07:37;101731.94;;;9.92;49.75
78825;BME280;68176;45.554;10.220;2024-01-30T13:10:07;101718.25;;;10.03;50.14